Silver Ridge Township, Maine
Current Conditions -  °F | °C
As of 10:53 PM on Sunday 21 Dec 2014 (Local Time) from KMLT Reporting Station
Haze Haze  
Wind Chill: -3°   Ceiling: 700
Heat Index: -3°   Visibility: 5mi
Dew Point: -4°   Wind: 0mph
Humidity: 92%   Direction: NA
Pressure: 30.4"   Gusts: NA
Location:  45.8047°N, 68.2984°W
Report Text: KMLT 220353Z AUTO 00000KT 5SM BR OVC007 M03/M04 A3040 RMK AO2 SLP305 T10281039
Loading
Personal Weather Stations






























Interactive Weather Map New forecast layout! Learn more

10-Day Weather Forecast

Advertisements
Track Severe Weather on mobile